Billings, New York
Current Conditions -  °F | °C
As of 5:53 PM on Friday 31 Oct 2014 (Local Time) from KPOU Reporting Station
Overcast Overcast  
Wind Chill: 52°   Ceiling: 6500
Heat Index: 52°   Visibility: 10mi
Dew Point: 37°   Wind: 6mph
Humidity: 57%   Direction: 30°NNE
Pressure: 29.91"   Gusts: NA
Location:  41.67°N, 73.76°W
Report Text: KPOU 312153Z 03005KT 10SM OVC065 11/03 A2991 RMK AO2 SLP127 T01110028
Loading
Personal Weather Stations






























Interactive Weather Map
Tropical Storm Tracking
New forecast layout! Learn more

10-Day Weather Forecast

Advertisements
Track Severe Weather on mobile